Airfield :
LOGIN :

Register | Disclaimer

   EN    FR    IT 

 










Legend :    VFR   Marginal VFR   IFR   Intensive IFR   Very Intensive IFR
Visi :
Ceiling :
>= 8 km
>= 3000ft
5 to 8 km
1000 to 3000 ft
1500m to 5 km
500 to 1000 ft
800 to 1500m
200 to 500 ft
< 800m
< 200 ft
Symbols :   Thunderstorms  Fog  Heavy snow  Heavy precipitations  Wind > 20 kt
SIGMETs :     Misc.  Thunderstorms  Icing  Turbulence  Mountain Waves  Volcanic Ashes






- Airport Elevation : 83 ft
- IATA code : LHR


EGLL - London Heathrow

CURRENT METAR :
  • 260320Z AUTO 00000KT 9999 NCD M02/M03 Q1017 NOSIG

EXPIRED METARs :
  • 260250Z AUTO 23002KT 9999 NCD M02/M03 Q1018 NOSIG
  • 260220Z AUTO 17001KT 9999 NCD M02/M03 Q1018 NOSIG
  • 260150Z AUTO 19003KT 9999 NCD M02/M03 Q1017
  • 260120Z AUTO 22004KT 9999 NCD M01/M03 Q1017 NOSIG
  • 260050Z AUTO 22003KT 9999 NCD M01/M03 Q1017
  • 260020Z AUTO 22005KT 9999 NCD M01/M03 Q1017

TAF TAF EGLL
Valid from the 26 at 00:00 until the 27 at 06:00 UTC


252301Z 2600/2706 19003KT CAVOK
PROB30 2603/2610 7000
BECMG 2609/2612 19014KT -RA BKN010
TEMPO 2610/2617 6000 RA BKN007
PROB30
TEMPO 2612/2617 3000 RADZ
BECMG 2617/2620 6000 -DZ BKN003
TEMPO 2617/2701 2500 RADZ
PROB30
TEMPO 2620/2701 BKN001
BECMG 2700/2703 27008KT 9999 NSW FEW025
PROB30
TEMPO 2703/2706 BKN004



MET'MAP, your aeronautical weather chart ! - Copyright ORBIFLY December 2007 - Disclaimer

ORBIFLY MET'MAP TEAM :

Programming & Development : Alexandra Zaïnal
Concept & original design : Baudouin d'Aumeries
Assistance for programming : Marc-Olivier Méhu
Technical & hardware support : Manuel Goepfert

Contact : metmap@orbifly.com




SOURCES & CREDITS :

   NOAA